< < Back
Terminal Aerodrome Forecast


Current Version              Previous Versions:   1  2  3  4  5  6  7  8  9  

Terminal Aerodrome Forecast

613
FTUS44 KMRX 281144
TAFCHA
TAF
KCHA 281144Z 2812/2912 02008KT P6SM OVC025
     FM281400 03007KT P6SM SCT250
     FM290000 00000KT P6SM SKC
     FM290900 00000KT P6SM FEW120 BKN250=

Latest METAR

099
SAUS80 KWBC 291000 RRC
MTRCHA
METAR KCHA 290953Z AUTO 00000KT 10SM CLR M01/M04 A3024 RMK AO2 SLP244
T10111039


USA.gov is the U.S. government's official web portal to all federal, state and local government web resources and services.